Terminal Aerodrome Forecast
Issued by NWS

Current Version | Previous Version | Text Only | Print | Product List | Glossary On
Versions: 1 2 3 4 5 6 7 8 9 10 11 12 13 14 15 16 17 18 19 20 21 22
000
FTUS43 KGRB 231327 AAA
TAFCWA
TAF AMD
KCWA 231327Z 2313/2412 32004KT 3SM BR SCT002 BKN025
      TEMPO 2313/2315 1/2SM FG BKN002
     FM231600 VRB03KT 4SM BR OVC004
     FM240600 00000KT 2SM BR OVC002=

USA.gov is the U.S. government's official web portal to all federal, state and local government web resources and services.